Hlavní strana
METAR-TAF:

METAR-TAF

Letiště :

Letiště Helsinky-Vantaa

Helsinky, Finsko

zeměpisná šířka: 60-19N, zeměpisná délka: 024-58E, výška: 51 m

Aktuální stav počasí

Zpráva byla vytvořena před 33 minutami, v 23:50 UTC
Severoseverovýchodní vítr 5 kt
Teplota 17°C
Vlhkost vzduchu 82%
Tlak 1014 hPa
Viditelnost 10 km a více
Žádná oblačnost pod 1500 m, nevyskytují se cumulonimby.

METAR: EFHK 182350Z 02005KT CAVOK 17/14 Q1014 NOSIG

Čas: 03:23 (00:23 UTC)

Předpověď počasí

Zpráva byla vytvořena před 47 minutami, v 23:36 UTC
Předpověď platná od 18 v 24 UTC do 19 v 24 UTC
Severovýchodní vítr 5 kt
Viditelnost 10 km a více
Žádná oblačnost pod 1500 m, nevyskytují se cumulonimby.
Změna
od 19 v 09 UTC do 19 v 11 UTC
Východojihovýchodní vítr 10 kt
Změna
od 19 v 17 UTC do 19 v 19 UTC
Severovýchodní vítr 5 kt

TAF: EFHK 182336Z 1824/1924 04005KT CAVOK BECMG 1909/1911 12010KT BECMG 1917/1919 05005KT

Stav a předpovědi počasí z více než 4 000 letišť (zprávy METAR a TAF).

Červené a žluté tečky na mapě představují dostupné meteorologické stanice.

Když kurzor umístíte na tečku, zobrazí se název stanice.

Pak kliknutím zobrazíte stav a předpověď počasí.

Chcete-li změnit mapu, kliknutím na zelené tlačítko se znaménkem +mapu přiblížíte, kliknutím na zelené tlačítko se znaménkem – mapu oddálíte a kliknutím na zelené šipky přejdete na sousední mapy.


METAR-TAF: